createdAt,value
2017-06-09T00:00:35.441Z,1005.89
2017-06-09T00:01:15.969Z,1005.89
2017-06-09T00:01:56.519Z,1005.91
2017-06-09T00:02:37.051Z,1005.88
2017-06-09T00:03:17.587Z,1005.88
2017-06-09T00:03:58.131Z,1005.83
2017-06-09T00:04:38.678Z,1005.83
2017-06-09T00:05:19.224Z,1005.86
2017-06-09T00:05:59.766Z,1005.86
2017-06-09T00:06:40.311Z,1005.86
2017-06-09T00:07:20.837Z,1005.84
2017-06-09T00:08:01.391Z,1005.87
2017-06-09T00:08:41.906Z,1005.88
2017-06-09T00:09:22.444Z,1005.85
2017-06-09T00:10:03.004Z,1005.86
2017-06-09T00:10:43.555Z,1005.84
2017-06-09T00:11:24.093Z,1005.85
2017-06-09T00:12:04.641Z,1005.86
2017-06-09T00:12:45.182Z,1005.86
2017-06-09T00:13:25.727Z,1005.84
2017-06-09T00:14:06.271Z,1005.84
2017-06-09T00:14:46.819Z,1005.85
2017-06-09T00:15:27.366Z,1005.84
2017-06-09T00:16:07.896Z,1005.81
2017-06-09T00:16:48.434Z,1005.84
2017-06-09T00:17:28.970Z,1005.84
2017-06-09T00:18:09.516Z,1005.81
2017-06-09T00:18:50.054Z,1005.83
2017-06-09T00:19:30.606Z,1005.81
2017-06-09T00:20:11.154Z,1005.88
2017-06-09T00:20:51.698Z,1005.82
2017-06-09T00:21:32.243Z,1005.83
2017-06-09T00:22:12.787Z,1005.82
2017-06-09T00:22:53.326Z,1005.87
2017-06-09T00:23:33.870Z,1005.87
2017-06-09T00:24:14.418Z,1005.88
2017-06-09T00:24:54.955Z,1005.86
2017-06-09T00:25:35.494Z,1005.88
2017-06-09T00:26:16.031Z,1005.9
2017-06-09T00:26:56.590Z,1005.91
2017-06-09T00:27:37.115Z,1005.93
2017-06-09T00:28:17.661Z,1005.94
2017-06-09T00:28:58.217Z,1005.96
2017-06-09T00:29:38.754Z,1005.96
2017-06-09T00:30:19.301Z,1005.93
2017-06-09T00:30:59.851Z,1005.92
2017-06-09T00:31:40.397Z,1005.95
2017-06-09T00:32:20.937Z,1005.97
2017-06-09T00:33:01.479Z,1005.95
2017-06-09T00:33:42.015Z,1005.97
2017-06-09T00:34:22.557Z,1005.96
2017-06-09T00:35:03.147Z,1005.97
2017-06-09T00:35:43.677Z,1005.96
2017-06-09T00:36:24.215Z,1005.94
2017-06-09T00:37:04.758Z,1005.96
2017-06-09T00:37:45.299Z,1005.93
2017-06-09T00:38:25.854Z,1005.92
2017-06-09T00:39:06.397Z,1005.98
2017-06-09T00:39:46.929Z,1005.94
2017-06-09T00:40:27.479Z,1005.93
2017-06-09T00:41:08.028Z,1005.89
2017-06-09T00:41:48.575Z,1005.95
2017-06-09T00:42:29.119Z,1005.95
2017-06-09T00:43:09.665Z,1005.93
2017-06-09T00:43:50.209Z,1005.88
2017-06-09T00:44:30.761Z,1005.86
2017-06-09T00:45:11.312Z,1005.87
2017-06-09T00:45:51.857Z,1005.88
2017-06-09T00:46:32.410Z,1005.9
2017-06-09T00:47:12.951Z,1005.84
2017-06-09T00:47:53.501Z,1005.89
2017-06-09T00:48:34.050Z,1005.89
2017-06-09T00:49:14.594Z,1005.89
2017-06-09T00:49:55.132Z,1005.9
2017-06-09T00:50:35.671Z,1005.88
2017-06-09T00:51:16.230Z,1005.91
2017-06-09T00:51:56.745Z,1005.91
2017-06-09T00:52:37.290Z,1005.88
2017-06-09T00:53:17.837Z,1005.83
2017-06-09T00:53:58.378Z,1005.88
2017-06-09T00:54:38.921Z,1005.87
2017-06-09T00:55:19.494Z,1005.83
2017-06-09T00:56:00.045Z,1005.85
2017-06-09T00:56:40.596Z,1005.78
2017-06-09T00:57:21.147Z,1005.82
2017-06-09T00:58:01.696Z,1005.8
2017-06-09T00:58:42.234Z,1005.82
2017-06-09T00:59:22.773Z,1005.77
2017-06-09T01:00:03.320Z,1005.77
2017-06-09T01:00:43.874Z,1005.78
2017-06-09T01:01:24.421Z,1005.79
2017-06-09T01:02:04.975Z,1005.79
2017-06-09T01:02:45.520Z,1005.8
2017-06-09T01:03:26.061Z,1005.75
2017-06-09T01:04:06.600Z,1005.77
2017-06-09T01:04:47.141Z,1005.72
2017-06-09T01:05:27.690Z,1005.74
2017-06-09T01:06:08.239Z,1005.76
2017-06-09T01:06:48.777Z,1005.73
2017-06-09T01:07:29.327Z,1005.76
2017-06-09T01:08:09.863Z,1005.73
2017-06-09T01:08:50.413Z,1005.73
2017-06-09T01:09:30.962Z,1005.7
2017-06-09T01:10:11.517Z,1005.69
2017-06-09T01:10:52.062Z,1005.67
2017-06-09T01:11:32.622Z,1005.71
2017-06-09T01:12:13.169Z,1005.7
2017-06-09T01:12:53.714Z,1005.67
2017-06-09T01:13:34.269Z,1005.67
2017-06-09T01:14:14.821Z,1005.67
2017-06-09T01:14:55.366Z,1005.67
2017-06-09T01:15:35.923Z,1005.65
2017-06-09T01:16:16.469Z,1005.66
2017-06-09T01:16:57.016Z,1005.64
2017-06-09T01:17:37.567Z,1005.62
2017-06-09T01:18:18.111Z,1005.61
2017-06-09T01:18:58.649Z,1005.59
2017-06-09T01:19:39.197Z,1005.56
2017-06-09T01:20:19.731Z,1005.58
2017-06-09T01:21:00.272Z,1005.53
2017-06-09T01:21:40.814Z,1005.51
2017-06-09T01:22:21.354Z,1005.52
2017-06-09T01:23:01.894Z,1005.47
2017-06-09T01:23:42.431Z,1005.43
2017-06-09T01:24:22.979Z,1005.46
2017-06-09T01:25:03.526Z,1005.44
2017-06-09T01:25:44.092Z,1005.43
2017-06-09T01:26:24.617Z,1005.42
2017-06-09T01:27:05.154Z,1005.44
2017-06-09T01:27:45.746Z,1005.46
2017-06-09T01:28:26.286Z,1005.44
2017-06-09T01:29:06.822Z,1005.41
2017-06-09T01:29:47.367Z,1005.41
2017-06-09T01:30:27.904Z,1005.43
2017-06-09T01:31:08.438Z,1005.38
2017-06-09T01:31:48.977Z,1005.37
2017-06-09T01:32:29.505Z,1005.4
2017-06-09T01:33:10.045Z,1005.32
2017-06-09T01:33:50.582Z,1005.32
2017-06-09T01:34:31.130Z,1005.32
2017-06-09T01:35:11.691Z,1005.31
2017-06-09T01:35:52.240Z,1005.3
2017-06-09T01:36:32.777Z,1005.27
2017-06-09T01:37:13.320Z,1005.26
2017-06-09T01:37:53.862Z,1005.23
2017-06-09T01:38:34.405Z,1005.26
2017-06-09T01:39:14.940Z,1005.27
2017-06-09T01:39:55.481Z,1005.26
2017-06-09T01:40:36.030Z,1005.24
2017-06-09T01:41:16.567Z,1005.25
2017-06-09T01:41:57.115Z,1005.23
2017-06-09T01:42:37.661Z,1005.24
2017-06-09T01:43:18.203Z,1005.22
2017-06-09T01:43:58.751Z,1005.24
2017-06-09T01:44:39.288Z,1005.21
2017-06-09T01:45:19.833Z,1005.24
2017-06-09T01:46:00.377Z,1005.22
2017-06-09T01:46:40.918Z,1005.17
2017-06-09T01:47:21.460Z,1005.18
2017-06-09T01:48:02.006Z,1005.22
2017-06-09T01:48:42.546Z,1005.19
2017-06-09T01:49:23.087Z,1005.17
2017-06-09T01:50:03.627Z,1005.14
2017-06-09T01:50:44.174Z,1005.16
2017-06-09T01:51:24.713Z,1005.12
2017-06-09T01:52:05.263Z,1005.16
2017-06-09T01:52:45.809Z,1005.13
2017-06-09T01:53:26.352Z,1005.13
2017-06-09T01:54:06.896Z,1005.18
2017-06-09T01:54:47.429Z,1005.15
2017-06-09T01:55:27.971Z,1005.15
2017-06-09T01:56:08.511Z,1005.08
2017-06-09T01:56:49.054Z,1005.13
2017-06-09T01:57:29.598Z,1005.1
2017-06-09T01:58:10.135Z,1005.12
2017-06-09T01:58:50.675Z,1005.13
2017-06-09T01:59:31.223Z,1005.12
2017-06-09T02:00:11.767Z,1005.12
2017-06-09T02:00:52.307Z,1005.08
2017-06-09T02:01:32.936Z,1005.12
2017-06-09T02:02:13.478Z,1005.13
2017-06-09T02:02:54.015Z,1005.13
2017-06-09T02:03:34.563Z,1005.13
2017-06-09T02:04:15.108Z,1005.14
2017-06-09T02:04:55.645Z,1005.13
2017-06-09T02:05:36.195Z,1005.11
2017-06-09T02:06:16.731Z,1005.12
2017-06-09T02:06:57.272Z,1005.13
2017-06-09T02:07:37.813Z,1005.14
2017-06-09T02:08:18.343Z,1005.15
2017-06-09T02:08:58.892Z,1005.16
2017-06-09T02:09:39.419Z,1005.13
2017-06-09T02:10:19.951Z,1005.1
2017-06-09T02:11:00.491Z,1005.08
2017-06-09T02:11:41.036Z,1005.12
2017-06-09T02:12:21.568Z,1005.1
2017-06-09T02:13:02.111Z,1005.08
2017-06-09T02:13:42.656Z,1005.09
2017-06-09T02:14:23.202Z,1005.09
2017-06-09T02:15:03.753Z,1005.09
2017-06-09T02:15:44.292Z,1005.08
2017-06-09T02:16:24.828Z,1005.07
2017-06-09T02:17:05.373Z,1005.09
2017-06-09T02:17:45.911Z,1005.1
2017-06-09T02:18:26.457Z,1005.11
2017-06-09T02:19:06.990Z,1005.1
2017-06-09T02:19:47.528Z,1005.09
2017-06-09T02:20:28.071Z,1005.07
2017-06-09T02:21:08.617Z,1005.05
2017-06-09T02:21:49.160Z,1005.08
2017-06-09T02:22:29.686Z,1005.09
2017-06-09T02:23:10.216Z,1005.08
2017-06-09T02:23:50.761Z,1005.06
2017-06-09T02:24:31.297Z,1005.06
2017-06-09T02:25:11.845Z,1005.05
2017-06-09T02:25:52.373Z,1005.05
2017-06-09T02:26:32.919Z,1005.09
2017-06-09T02:27:13.433Z,1005.1
2017-06-09T02:27:53.967Z,1005.08
2017-06-09T02:28:34.519Z,1005.09
2017-06-09T02:29:15.058Z,1005.07
2017-06-09T02:29:55.628Z,1005.04
2017-06-09T02:30:36.169Z,1005.02
2017-06-09T02:31:16.700Z,1005.05
2017-06-09T02:31:57.243Z,1005.02
2017-06-09T02:32:37.789Z,1005.01
2017-06-09T02:33:18.340Z,1005
2017-06-09T02:33:58.881Z,1004.98
2017-06-09T02:34:39.396Z,1004.97
2017-06-09T02:35:19.941Z,1004.98
2017-06-09T02:36:00.473Z,1004.93
2017-06-09T02:36:41.004Z,1004.95
2017-06-09T02:37:21.545Z,1004.93
2017-06-09T02:38:02.093Z,1004.93
2017-06-09T02:38:42.638Z,1004.92
2017-06-09T02:39:23.185Z,1004.9
2017-06-09T02:40:03.726Z,1004.9
2017-06-09T02:40:44.267Z,1004.89
2017-06-09T02:41:24.813Z,1004.91
2017-06-09T02:42:05.338Z,1004.92
2017-06-09T02:42:45.871Z,1004.91
2017-06-09T02:43:26.415Z,1004.92
2017-06-09T02:44:06.961Z,1004.9
2017-06-09T02:44:47.509Z,1004.89
2017-06-09T02:45:28.052Z,1004.89
2017-06-09T02:46:08.596Z,1004.9
2017-06-09T02:46:49.151Z,1004.9
2017-06-09T02:47:29.698Z,1004.84
2017-06-09T02:48:10.243Z,1004.86
2017-06-09T02:48:50.791Z,1004.84
2017-06-09T02:49:31.336Z,1004.87
2017-06-09T02:50:11.875Z,1004.82
2017-06-09T02:50:52.412Z,1004.82
2017-06-09T02:51:32.941Z,1004.84
2017-06-09T02:52:13.485Z,1004.8
2017-06-09T02:52:54.023Z,1004.76
2017-06-09T02:53:34.567Z,1004.75
2017-06-09T02:54:15.110Z,1004.73
2017-06-09T02:54:55.662Z,1004.73
2017-06-09T02:55:36.198Z,1004.68
2017-06-09T02:56:16.736Z,1004.68
2017-06-09T02:56:57.278Z,1004.62
2017-06-09T02:57:37.817Z,1004.62
2017-06-09T02:58:18.363Z,1004.6
2017-06-09T02:58:58.890Z,1004.6
2017-06-09T02:59:39.429Z,1004.59
2017-06-09T03:00:19.970Z,1004.54
2017-06-09T03:01:00.514Z,1004.56
2017-06-09T03:01:41.055Z,1004.52
2017-06-09T03:02:21.587Z,1004.52
2017-06-09T03:03:02.119Z,1004.54
2017-06-09T03:03:42.656Z,1004.5
2017-06-09T03:04:23.208Z,1004.54
2017-06-09T03:05:03.734Z,1004.49
2017-06-09T03:05:44.286Z,1004.51
2017-06-09T03:06:24.835Z,1004.51
2017-06-09T03:07:05.373Z,1004.53
2017-06-09T03:07:45.914Z,1004.52
2017-06-09T03:08:26.461Z,1004.53
2017-06-09T03:09:06.984Z,1004.53
2017-06-09T03:09:47.527Z,1004.55
2017-06-09T03:10:28.064Z,1004.6
2017-06-09T03:11:08.609Z,1004.59
2017-06-09T03:11:49.143Z,1004.61
2017-06-09T03:12:29.681Z,1004.6
2017-06-09T03:13:10.229Z,1004.59
2017-06-09T03:13:50.772Z,1004.6
2017-06-09T03:14:31.319Z,1004.62
2017-06-09T03:15:11.866Z,1004.6
2017-06-09T03:15:52.398Z,1004.59
2017-06-09T03:16:32.935Z,1004.57
2017-06-09T03:17:13.472Z,1004.51
2017-06-09T03:17:54.015Z,1004.53
2017-06-09T03:18:34.563Z,1004.55
2017-06-09T03:19:15.102Z,1004.54
2017-06-09T03:19:55.647Z,1004.53
2017-06-09T03:20:36.185Z,1004.55
2017-06-09T03:21:16.726Z,1004.54
2017-06-09T03:21:57.272Z,1004.52
2017-06-09T03:22:37.798Z,1004.53
2017-06-09T03:23:18.327Z,1004.54
2017-06-09T03:23:58.868Z,1004.51
2017-06-09T03:24:39.418Z,1004.51
2017-06-09T03:25:19.958Z,1004.52
2017-06-09T03:26:00.505Z,1004.53
2017-06-09T03:26:41.051Z,1004.54
2017-06-09T03:27:21.596Z,1004.58
2017-06-09T03:28:02.140Z,1004.54
2017-06-09T03:28:42.682Z,1004.54
2017-06-09T03:29:23.227Z,1004.56
2017-06-09T03:30:03.760Z,1004.58
2017-06-09T03:30:44.299Z,1004.59
2017-06-09T03:31:24.845Z,1004.57
2017-06-09T03:32:05.398Z,1004.63
2017-06-09T03:32:45.929Z,1004.57
2017-06-09T03:33:26.467Z,1004.57
2017-06-09T03:34:07.005Z,1004.58
2017-06-09T03:34:47.543Z,1004.53
2017-06-09T03:35:28.088Z,1004.47
2017-06-09T03:36:08.633Z,1004.51
2017-06-09T03:36:49.168Z,1004.5
2017-06-09T03:37:29.701Z,1004.44
2017-06-09T03:38:10.233Z,1004.48
2017-06-09T03:38:50.777Z,1004.45
2017-06-09T03:39:31.319Z,1004.43
2017-06-09T03:40:11.843Z,1004.41
2017-06-09T03:40:52.386Z,1004.4
2017-06-09T03:41:32.949Z,1004.42
2017-06-09T03:42:13.499Z,1004.39
2017-06-09T03:42:54.044Z,1004.38
2017-06-09T03:43:34.590Z,1004.41
2017-06-09T03:44:15.140Z,1004.39
2017-06-09T03:44:55.703Z,1004.43
2017-06-09T03:45:36.298Z,1004.39
2017-06-09T03:46:16.837Z,1004.39
2017-06-09T03:46:57.373Z,1004.37
2017-06-09T03:47:37.916Z,1004.37
2017-06-09T03:48:18.452Z,1004.34
2017-06-09T03:48:59.001Z,1004.36
2017-06-09T03:49:39.539Z,1004.36
2017-06-09T03:50:20.062Z,1004.36
2017-06-09T03:51:00.622Z,1004.32
2017-06-09T03:51:41.134Z,1004.32
2017-06-09T03:52:21.681Z,1004.31
2017-06-09T03:53:02.218Z,1004.33
2017-06-09T03:53:42.760Z,1004.31
2017-06-09T03:54:23.279Z,1004.31
2017-06-09T03:55:03.822Z,1004.3
2017-06-09T03:55:44.341Z,1004.3
2017-06-09T03:56:24.878Z,1004.33
2017-06-09T03:57:05.423Z,1004.34
2017-06-09T03:57:45.953Z,1004.31
2017-06-09T03:58:26.501Z,1004.32
2017-06-09T03:59:07.043Z,1004.34
2017-06-09T03:59:47.581Z,1004.32
2017-06-09T04:00:28.685Z,1004.31
2017-06-09T04:01:09.281Z,1004.31
2017-06-09T04:01:49.820Z,1004.31
2017-06-09T04:02:30.354Z,1004.33
2017-06-09T04:03:10.877Z,1004.34
2017-06-09T04:03:51.456Z,1004.35
2017-06-09T04:04:31.994Z,1004.36
2017-06-09T04:05:12.535Z,1004.37
2017-06-09T04:05:53.073Z,1004.38
2017-06-09T04:06:33.624Z,1004.37
2017-06-09T04:07:14.182Z,1004.39
2017-06-09T04:07:54.718Z,1004.37
2017-06-09T04:08:35.254Z,1004.36
2017-06-09T04:09:15.848Z,1004.35
2017-06-09T04:09:56.382Z,1004.34
2017-06-09T04:10:36.931Z,1004.34
2017-06-09T04:11:17.476Z,1004.3
2017-06-09T04:11:58.022Z,1004.32
2017-06-09T04:12:38.557Z,1004.34
2017-06-09T04:13:19.085Z,1004.39
2017-06-09T04:13:59.628Z,1004.4
2017-06-09T04:14:40.163Z,1004.37
2017-06-09T04:15:20.723Z,1004.33
2017-06-09T04:16:01.269Z,1004.36
2017-06-09T04:16:41.812Z,1004.38
2017-06-09T04:17:22.353Z,1004.34
2017-06-09T04:18:02.895Z,1004.37
2017-06-09T04:18:43.435Z,1004.39
2017-06-09T04:19:24.024Z,1004.36
2017-06-09T04:20:04.557Z,1004.35
2017-06-09T04:20:45.104Z,1004.35
2017-06-09T04:21:25.651Z,1004.4
2017-06-09T04:22:06.187Z,1004.36
2017-06-09T04:22:46.725Z,1004.4
2017-06-09T04:23:27.269Z,1004.38
2017-06-09T04:24:07.798Z,1004.37
2017-06-09T04:24:48.346Z,1004.38
2017-06-09T04:25:28.885Z,1004.34
2017-06-09T04:26:09.436Z,1004.37
2017-06-09T04:26:49.984Z,1004.29
2017-06-09T04:27:30.531Z,1004.31
2017-06-09T04:28:11.075Z,1004.27
2017-06-09T04:28:51.620Z,1004.3
2017-06-09T04:29:32.168Z,1004.23
2017-06-09T04:30:12.711Z,1004.24
2017-06-09T04:30:53.259Z,1004.24
2017-06-09T04:31:33.811Z,1004.24
2017-06-09T04:32:14.355Z,1004.23
2017-06-09T04:32:54.879Z,1004.19
2017-06-09T04:33:35.422Z,1004.18
2017-06-09T04:34:15.958Z,1004.19
2017-06-09T04:34:56.498Z,1004.22
2017-06-09T04:35:37.042Z,1004.2
2017-06-09T04:36:17.589Z,1004.21
2017-06-09T04:36:58.131Z,1004.23
2017-06-09T04:37:38.678Z,1004.27
2017-06-09T04:38:19.219Z,1004.23
2017-06-09T04:38:59.762Z,1004.23
2017-06-09T04:39:40.349Z,1004.23
2017-06-09T04:40:20.836Z,1004.24
2017-06-09T04:41:01.382Z,1004.25
2017-06-09T04:41:41.922Z,1004.25
2017-06-09T04:42:22.469Z,1004.25
2017-06-09T04:43:03.009Z,1004.26
2017-06-09T04:43:43.554Z,1004.25
2017-06-09T04:44:24.101Z,1004.3
2017-06-09T04:45:04.656Z,1004.26
2017-06-09T04:45:45.198Z,1004.28
2017-06-09T04:46:25.762Z,1004.26
2017-06-09T04:47:06.315Z,1004.26
2017-06-09T04:47:46.866Z,1004.23
2017-06-09T04:48:27.422Z,1004.22
2017-06-09T04:49:07.974Z,1004.24
2017-06-09T04:49:48.508Z,1004.26
2017-06-09T04:50:29.058Z,1004.27
2017-06-09T04:51:09.609Z,1004.25
2017-06-09T04:51:50.158Z,1004.21
2017-06-09T04:52:30.708Z,1004.28
2017-06-09T04:53:11.254Z,1004.22
2017-06-09T04:53:51.802Z,1004.27
2017-06-09T04:54:32.342Z,1004.23
2017-06-09T04:55:12.892Z,1004.25
2017-06-09T04:55:53.434Z,1004.2
2017-06-09T04:56:33.977Z,1004.19
2017-06-09T04:57:14.522Z,1004.21
2017-06-09T04:57:55.071Z,1004.19
2017-06-09T04:58:35.620Z,1004.18
2017-06-09T04:59:16.156Z,1004.21
2017-06-09T04:59:56.690Z,1004.19
2017-06-09T05:00:37.227Z,1004.18
2017-06-09T05:01:17.771Z,1004.19
2017-06-09T05:01:58.317Z,1004.19
2017-06-09T05:02:38.868Z,1004.21
2017-06-09T05:03:19.447Z,1004.23
2017-06-09T05:03:59.997Z,1004.23
2017-06-09T05:04:40.544Z,1004.2
2017-06-09T05:05:21.093Z,1004.21
2017-06-09T05:06:01.634Z,1004.2
2017-06-09T05:06:42.205Z,1004.22
2017-06-09T05:07:22.772Z,1004.2
2017-06-09T05:08:03.317Z,1004.18
2017-06-09T05:08:43.864Z,1004.18
2017-06-09T05:09:24.401Z,1004.18
2017-06-09T05:10:04.949Z,1004.17
2017-06-09T05:10:45.501Z,1004.18
2017-06-09T05:11:26.044Z,1004.16
2017-06-09T05:12:06.590Z,1004.16
2017-06-09T05:12:47.159Z,1004.13
2017-06-09T05:13:27.698Z,1004.13
2017-06-09T05:14:08.257Z,1004.07
2017-06-09T05:14:48.805Z,1004.03
2017-06-09T05:15:29.350Z,1004.04
2017-06-09T05:16:09.931Z,1003.98
2017-06-09T05:16:50.473Z,1003.99
2017-06-09T05:17:31.014Z,1004.01
2017-06-09T05:18:11.563Z,1004.01
2017-06-09T05:18:52.115Z,1003.98
2017-06-09T05:19:32.665Z,1004.01
2017-06-09T05:20:13.214Z,1004.05
2017-06-09T05:20:53.757Z,1004.08
2017-06-09T05:21:34.298Z,1004.08
2017-06-09T05:22:14.859Z,1004.11
2017-06-09T05:22:55.409Z,1004.09
2017-06-09T05:23:35.985Z,1004.07
2017-06-09T05:24:16.501Z,1004.08
2017-06-09T05:24:57.057Z,1004.11
2017-06-09T05:25:37.614Z,1004.08
2017-06-09T05:26:18.163Z,1004.11
2017-06-09T05:26:58.728Z,1004.1
2017-06-09T05:27:39.275Z,1004.12
2017-06-09T05:28:19.830Z,1004.09
2017-06-09T05:29:00.379Z,1004.08
2017-06-09T05:29:40.917Z,1004.08
2017-06-09T05:30:21.468Z,1004.09
2017-06-09T05:31:02.019Z,1004.11
2017-06-09T05:31:42.568Z,1004.12
2017-06-09T05:32:23.122Z,1004.14
2017-06-09T05:33:03.669Z,1004.16
2017-06-09T05:33:44.237Z,1004.17
2017-06-09T05:34:24.774Z,1004.16
2017-06-09T05:35:05.317Z,1004.19
2017-06-09T05:35:45.868Z,1004.24
2017-06-09T05:36:26.419Z,1004.22
2017-06-09T05:37:06.973Z,1004.28
2017-06-09T05:37:47.520Z,1004.27
2017-06-09T05:38:28.075Z,1004.29
2017-06-09T05:39:08.622Z,1004.33
2017-06-09T05:39:49.167Z,1004.28
2017-06-09T05:40:29.741Z,1004.33
2017-06-09T05:41:10.284Z,1004.36
2017-06-09T05:41:50.829Z,1004.34
2017-06-09T05:42:31.378Z,1004.35
2017-06-09T05:43:11.927Z,1004.38
2017-06-09T05:43:52.476Z,1004.38
2017-06-09T05:44:33.029Z,1004.39
2017-06-09T05:45:13.643Z,1004.41
2017-06-09T05:45:54.468Z,1004.4
2017-06-09T05:46:35.111Z,1004.38
2017-06-09T05:47:15.646Z,1004.36
2017-06-09T05:47:56.190Z,1004.36
2017-06-09T05:48:36.743Z,1004.33
2017-06-09T05:49:17.294Z,1004.3
2017-06-09T05:49:57.844Z,1004.3
2017-06-09T05:50:38.394Z,1004.35
2017-06-09T05:51:18.945Z,1004.3
2017-06-09T05:51:59.493Z,1004.29
2017-06-09T05:52:40.045Z,1004.27
2017-06-09T05:53:20.587Z,1004.24
2017-06-09T05:54:01.136Z,1004.25
2017-06-09T05:54:41.680Z,1004.2
2017-06-09T05:55:22.227Z,1004.23
2017-06-09T05:56:02.784Z,1004.22
2017-06-09T05:56:43.334Z,1004.23
2017-06-09T05:57:23.882Z,1004.22
2017-06-09T05:58:04.434Z,1004.24
2017-06-09T05:58:45.007Z,1004.24
2017-06-09T05:59:25.558Z,1004.22
2017-06-09T06:00:06.107Z,1004.24
2017-06-09T06:00:46.662Z,1004.21
2017-06-09T06:01:27.216Z,1004.22
2017-06-09T06:02:07.760Z,1004.17
2017-06-09T06:02:48.312Z,1004.17
2017-06-09T06:03:28.863Z,1004.15
2017-06-09T06:04:09.417Z,1004.16
2017-06-09T06:04:49.968Z,1004.14
2017-06-09T06:05:30.519Z,1004.12
2017-06-09T06:06:11.070Z,1004.11
2017-06-09T06:06:51.639Z,1004.07
2017-06-09T06:07:32.190Z,1004.05
2017-06-09T06:08:12.728Z,1004.03
2017-06-09T06:08:53.274Z,1004.01
2017-06-09T06:09:33.817Z,1004.03
2017-06-09T06:10:14.359Z,1004.03
2017-06-09T06:10:54.917Z,1003.95
2017-06-09T06:11:35.477Z,1003.95
2017-06-09T06:12:16.024Z,1003.97
2017-06-09T06:12:56.584Z,1003.97
2017-06-09T06:13:37.166Z,1004.01
2017-06-09T06:14:17.799Z,1003.99
2017-06-09T06:14:58.367Z,1004.05
2017-06-09T06:15:38.915Z,1004.11
2017-06-09T06:16:19.488Z,1004.17
2017-06-09T06:17:00.022Z,1004.2
2017-06-09T06:17:40.570Z,1004.26
2017-06-09T06:18:21.118Z,1004.27
2017-06-09T06:19:01.662Z,1004.26
2017-06-09T06:19:42.220Z,1004.3
2017-06-09T06:20:22.760Z,1004.22
2017-06-09T06:21:03.341Z,1004.23
2017-06-09T06:21:43.892Z,1004.2
2017-06-09T06:22:24.448Z,1004.31
2017-06-09T06:23:04.991Z,1004.33
2017-06-09T06:23:45.547Z,1004.36
2017-06-09T06:24:26.101Z,1004.35
2017-06-09T06:25:06.649Z,1004.35
2017-06-09T06:25:47.195Z,1004.33
2017-06-09T06:26:27.730Z,1004.3
2017-06-09T06:27:08.279Z,1004.29
2017-06-09T06:27:48.820Z,1004.32
2017-06-09T06:28:29.389Z,1004.39
2017-06-09T06:29:09.909Z,1004.39
2017-06-09T06:29:50.474Z,1004.43
2017-06-09T06:30:31.125Z,1004.45
2017-06-09T06:31:11.678Z,1004.43
2017-06-09T06:31:52.226Z,1004.4
2017-06-09T06:32:32.776Z,1004.43
2017-06-09T06:33:13.326Z,1004.41
2017-06-09T06:33:53.862Z,1004.38
2017-06-09T06:34:34.493Z,1004.38
2017-06-09T06:35:15.038Z,1004.38
2017-06-09T06:35:55.580Z,1004.42
2017-06-09T06:36:36.189Z,1004.44
2017-06-09T06:37:16.744Z,1004.45
2017-06-09T06:37:57.290Z,1004.51
2017-06-09T06:38:37.833Z,1004.41
2017-06-09T06:39:18.368Z,1004.46
2017-06-09T06:39:58.914Z,1004.44
2017-06-09T06:40:39.472Z,1004.45
2017-06-09T06:41:20.022Z,1004.49
2017-06-09T06:42:00.560Z,1004.58
2017-06-09T06:42:41.106Z,1004.57
2017-06-09T06:43:21.653Z,1004.52
2017-06-09T06:44:02.209Z,1004.52
2017-06-09T06:44:42.752Z,1004.45
2017-06-09T06:45:23.308Z,1004.4
2017-06-09T06:46:03.860Z,1004.38
2017-06-09T06:46:44.403Z,1004.37
2017-06-09T06:47:24.950Z,1004.31
2017-06-09T06:48:05.530Z,1004.32
2017-06-09T06:48:46.078Z,1004.36
2017-06-09T06:49:26.632Z,1004.39
2017-06-09T06:50:07.182Z,1004.38
2017-06-09T06:50:47.733Z,1004.38
2017-06-09T06:51:28.313Z,1004.32
2017-06-09T06:52:08.855Z,1004.21
2017-06-09T06:52:49.403Z,1004.19
2017-06-09T06:53:29.955Z,1004.13
2017-06-09T06:54:10.491Z,1004.11
2017-06-09T06:54:51.069Z,1004.12
2017-06-09T06:55:31.609Z,1004.15
2017-06-09T06:56:12.159Z,1004.2
2017-06-09T06:56:52.707Z,1004.19
2017-06-09T06:57:33.248Z,1004.15
2017-06-09T06:58:13.811Z,1004.11
2017-06-09T06:58:54.341Z,1004.17
2017-06-09T06:59:34.894Z,1004.17
2017-06-09T07:00:15.443Z,1004.18
2017-06-09T07:00:55.987Z,1004.21
2017-06-09T07:01:36.543Z,1004.22
2017-06-09T07:02:17.081Z,1004.16
2017-06-09T07:02:57.624Z,1004.17
2017-06-09T07:03:38.173Z,1004.2
2017-06-09T07:04:18.724Z,1004.22
2017-06-09T07:04:59.275Z,1004.2
2017-06-09T07:05:39.808Z,1004.18
2017-06-09T07:06:20.359Z,1004.15
2017-06-09T07:07:00.894Z,1004.12
2017-06-09T07:07:41.439Z,1004.1
2017-06-09T07:08:21.973Z,1004.11
2017-06-09T07:09:02.535Z,1004.08
2017-06-09T07:09:43.065Z,1004.06
2017-06-09T07:10:23.652Z,1004.03
2017-06-09T07:11:04.201Z,1004.01
2017-06-09T07:11:44.748Z,1003.98
2017-06-09T07:12:25.296Z,1003.96
2017-06-09T07:13:05.846Z,1003.97
2017-06-09T07:13:46.387Z,1004.02
2017-06-09T07:14:26.929Z,1004.06
2017-06-09T07:15:07.473Z,1004.15
2017-06-09T07:15:48.022Z,1004.21
2017-06-09T07:16:28.564Z,1004.29
2017-06-09T07:17:09.113Z,1004.32
2017-06-09T07:17:49.663Z,1004.31
2017-06-09T07:18:30.207Z,1004.36
2017-06-09T07:19:10.748Z,1004.37
2017-06-09T07:19:51.306Z,1004.37
2017-06-09T07:20:31.846Z,1004.39
2017-06-09T07:21:16.482Z,1004.43
2017-06-09T07:21:57.032Z,1004.45
2017-06-09T07:22:37.572Z,1004.46
2017-06-09T07:23:18.117Z,1004.47
2017-06-09T07:23:58.696Z,1004.45
2017-06-09T07:24:39.248Z,1004.49
2017-06-09T07:25:19.794Z,1004.48
2017-06-09T07:26:00.339Z,1004.52
2017-06-09T07:26:40.888Z,1004.55
2017-06-09T07:27:21.430Z,1004.54
2017-06-09T07:28:01.967Z,1004.55
2017-06-09T07:28:42.514Z,1004.58
2017-06-09T07:29:23.062Z,1004.59
2017-06-09T07:30:03.595Z,1004.62
2017-06-09T07:30:44.145Z,1004.62
2017-06-09T07:31:24.678Z,1004.6
2017-06-09T07:32:05.212Z,1004.66
2017-06-09T07:32:45.752Z,1004.63
2017-06-09T07:33:26.294Z,1004.66
2017-06-09T07:34:06.830Z,1004.63
2017-06-09T07:34:47.373Z,1004.64
2017-06-09T07:35:27.927Z,1004.66
2017-06-09T07:36:08.472Z,1004.66
2017-06-09T07:36:49.000Z,1004.64
2017-06-09T07:37:29.542Z,1004.62
2017-06-09T07:38:10.085Z,1004.6
2017-06-09T07:38:50.631Z,1004.58
2017-06-09T07:39:31.174Z,1004.56
2017-06-09T07:40:11.722Z,1004.56
2017-06-09T07:40:52.253Z,1004.59
2017-06-09T07:41:32.779Z,1004.61
2017-06-09T07:42:13.330Z,1004.59
2017-06-09T07:42:53.868Z,1004.66
2017-06-09T07:43:34.405Z,1004.66
2017-06-09T07:44:14.957Z,1004.69
2017-06-09T07:44:55.490Z,1004.69
2017-06-09T07:45:36.054Z,1004.66
2017-06-09T07:46:16.591Z,1004.7
2017-06-09T07:46:57.141Z,1004.71
2017-06-09T07:47:37.691Z,1004.75
2017-06-09T07:48:18.234Z,1004.76
2017-06-09T07:48:58.775Z,1004.8
2017-06-09T07:49:39.320Z,1004.86
2017-06-09T07:50:19.862Z,1004.94
2017-06-09T07:51:00.401Z,1004.94
2017-06-09T07:51:40.938Z,1004.96
2017-06-09T07:52:21.491Z,1004.97
2017-06-09T07:53:02.031Z,1004.99
2017-06-09T07:53:42.573Z,1004.98
2017-06-09T07:54:23.107Z,1005.01
2017-06-09T07:55:03.653Z,1004.98
2017-06-09T07:55:44.199Z,1004.98
2017-06-09T07:56:24.742Z,1004.93
2017-06-09T07:57:05.285Z,1004.9
2017-06-09T07:57:45.828Z,1004.86
2017-06-09T07:58:26.377Z,1004.84
2017-06-09T07:59:06.920Z,1004.86
2017-06-09T07:59:47.465Z,1004.81
2017-06-09T08:00:28.011Z,1004.84
2017-06-09T08:01:08.549Z,1004.74
2017-06-09T08:01:49.099Z,1004.73
2017-06-09T08:02:29.645Z,1004.64
2017-06-09T08:03:10.179Z,1004.65
2017-06-09T08:03:50.730Z,1004.6
2017-06-09T08:04:31.268Z,1004.59
2017-06-09T08:05:11.816Z,1004.58
2017-06-09T08:05:52.351Z,1004.61
2017-06-09T08:06:32.891Z,1004.56
2017-06-09T08:07:13.439Z,1004.61
2017-06-09T08:07:53.978Z,1004.61
2017-06-09T08:08:34.515Z,1004.65
2017-06-09T08:09:15.063Z,1004.65
2017-06-09T08:09:55.599Z,1004.71
2017-06-09T08:10:36.152Z,1004.72
2017-06-09T08:11:16.691Z,1004.73
2017-06-09T08:11:57.231Z,1004.74